Time;durP1;ratioP1;P1;durP2;ratioP2;P2;SDS_P1;SDS_P2;PMS_P1;PMS_P2;Temp;Humidity;BMP_temperature;BMP_pressure;BME280_temperature;BME280_humidity;BME280_pressure;Samples;Min_cycle;Max_cycle;Signal;HPM_P1;HPM_P2
2022/08/10 00:01:52;;;;;;;3.20;2.90;;;21.90;35.50;;;24.61;28.09;98279.13;5086697;28;20052;-45
2022/08/10 00:04:22;;;;;;;5.70;2.80;;;21.90;35.40;;;24.57;28.33;98276.03;5085342;28;20052;-45
2022/08/10 00:06:54;;;;;;;2.72;2.38;;;21.90;35.70;;;24.54;28.37;98271.91;5086120;28;20047;-45
2022/08/10 00:09:23;;;;;;;3.40;3.03;;;21.90;36.10;;;24.52;28.67;98275.91;5086048;28;20056;-47
2022/08/10 00:11:51;;;;;;;3.17;2.85;;;21.80;35.80;;;24.51;28.21;98279.72;5086134;28;20340;-45
2022/08/10 00:14:19;;;;;;;8.10;3.45;;;21.80;35.80;;;24.47;28.32;98278.50;5086959;28;20060;-46
2022/08/10 00:16:47;;;;;;;5.25;2.60;;;21.80;35.80;;;24.43;28.43;98282.72;5085726;28;20385;-46
2022/08/10 00:19:15;;;;;;;2.97;2.67;;;21.70;35.80;;;24.40;28.39;98280.50;5085758;28;20060;-43
2022/08/10 00:21:46;;;;;;;2.97;2.67;;;21.70;36.00;;;24.38;28.43;98281.53;5086362;28;20059;-46
2022/08/10 00:24:14;;;;;;;3.40;2.33;;;21.70;36.10;;;24.38;28.56;98278.00;5086645;28;20050;-47
2022/08/10 00:26:43;;;;;;;4.57;2.47;;;21.70;36.10;;;24.37;28.71;98277.19;5086184;28;20052;-48
2022/08/10 00:29:30;;;;;;;2.88;2.58;;;21.70;36.00;;;24.38;28.84;98280.72;5085230;28;20048;-44
2022/08/10 00:31:58;;;;;;;2.83;2.60;;;21.70;36.20;;;24.35;28.79;98276.59;5086662;28;20058;-45
2022/08/10 00:34:31;;;;;;;3.00;2.67;;;21.70;36.30;;;24.30;28.74;98270.19;5090344;28;20116;-44
2022/08/10 00:37:00;;;;;;;3.08;2.75;;;21.70;36.50;;;24.30;28.64;98275.63;5089353;28;20060;-45
2022/08/10 00:39:29;;;;;;;4.97;2.55;;;21.70;36.30;;;24.23;28.77;98267.56;5090958;28;20048;-44
2022/08/10 00:42:08;;;;;;;3.53;2.60;;;21.60;36.20;;;24.22;28.98;98273.25;5089787;28;20066;-46
2022/08/10 00:44:44;;;;;;;2.80;2.47;;;21.70;36.80;;;24.23;29.05;98273.00;5089950;28;20231;-46
2022/08/10 00:47:13;;;;;;;3.13;2.28;;;21.60;36.70;;;24.18;29.29;98265.56;5090078;28;20044;-44
2022/08/10 00:50:03;;;;;;;3.55;2.65;;;21.60;36.60;;;24.15;28.94;98266.00;5089901;28;20350;-43
2022/08/10 00:52:32;;;;;;;3.70;2.63;;;21.50;36.70;;;24.08;29.18;98272.63;5089670;28;20062;-47
2022/08/10 00:55:02;;;;;;;3.58;2.50;;;21.40;36.90;;;23.98;29.30;98276.75;5090082;28;20054;-44
2022/08/10 00:57:32;;;;;;;4.40;3.03;;;21.30;37.20;;;23.95;29.40;98273.66;5088950;28;20058;-43
2022/08/10 01:00:01;;;;;;;3.35;2.40;;;21.30;37.30;;;23.91;29.61;98278.75;5090442;28;20043;-45
2022/08/10 01:02:31;;;;;;;5.25;3.70;;;21.20;37.40;;;23.87;29.31;98276.72;5089367;28;20052;-48
2022/08/10 01:05:06;;;;;;;2.78;2.58;;;21.10;37.60;;;23.82;29.52;98276.59;5089811;28;20048;-44
2022/08/10 01:07:42;;;;;;;3.50;2.60;;;21.00;37.90;;;23.80;29.88;98276.81;5090125;28;20050;-44
2022/08/10 01:10:36;;;;;;;3.20;2.80;;;21.00;37.90;;;23.75;29.81;98274.75;5088715;28;20373;-45
2022/08/10 01:13:20;;;;;;;4.18;2.60;;;20.90;39.10;;;23.71;29.78;98276.28;5088602;28;20067;-45
2022/08/10 01:16:04;;;;;;;6.55;2.80;;;20.90;38.70;;;23.71;29.84;98279.00;5088143;28;20265;-47
2022/08/10 01:18:56;;;;;;;2.60;2.30;;;20.90;39.30;;;23.68;30.15;98275.91;5086558;28;20082;-44
2022/08/10 01:21:48;;;;;;;3.28;2.50;;;20.90;39.20;;;23.68;30.26;98278.63;5089209;28;20052;-44
2022/08/10 01:25:08;;;;;;;2.95;2.65;;;20.90;39.20;;;23.64;29.92;98275.53;5087957;28;20057;-46
2022/08/10 01:28:08;;;;;;;4.13;2.47;;;20.90;38.90;;;23.63;29.95;98282.03;5074590;28;20068;-45
2022/08/10 01:30:37;;;;;;;4.80;2.80;;;20.80;39.50;;;23.57;30.35;98277.50;5088924;28;20058;-45
2022/08/10 01:33:28;;;;;;;2.90;2.70;;;20.80;38.70;;;23.56;30.21;98273.97;5088137;28;20056;-46
2022/08/10 01:36:19;;;;;;;5.03;2.60;;;20.80;39.40;;;23.50;30.21;98269.47;5088990;28;20054;-46
2022/08/10 01:39:03;;;;;;;2.75;2.33;;;20.70;39.10;;;23.49;30.70;98269.69;5087342;28;20361;-43
2022/08/10 01:41:39;;;;;;;5.25;2.90;;;20.80;39.30;;;23.47;30.89;98267.19;5088503;28;20265;-45
2022/08/10 01:44:22;;;;;;;3.83;3.20;;;20.80;39.90;;;23.47;30.82;98269.91;5087117;28;20058;-43
2022/08/10 01:46:55;;;;;;;5.38;2.58;;;20.70;39.50;;;23.42;30.74;98277.94;5088571;28;20048;-47
2022/08/10 01:49:25;;;;;;;2.60;2.40;;;20.70;39.50;;;23.39;30.89;98271.06;5088564;28;20060;-44
2022/08/10 01:51:58;;;;;;;4.15;2.40;;;20.60;39.40;;;23.35;31.47;98277.19;5086842;28;20048;-44
2022/08/10 01:54:28;;;;;;;3.15;2.70;;;20.60;39.70;;;23.32;31.20;98272.19;5087921;28;20048;-45
2022/08/10 01:56:58;;;;;;;4.05;2.67;;;20.60;39.50;;;23.29;30.96;98265.34;5086679;28;20346;-44
2022/08/10 01:59:35;;;;;;;3.63;2.63;;;20.60;39.80;;;23.27;31.02;98285.66;5088078;28;20046;-43
2022/08/10 02:02:10;;;;;;;2.47;2.28;;;20.50;40.40;;;23.25;30.98;98274.19;5086918;28;20062;-46
2022/08/10 02:04:44;;;;;;;3.38;2.70;;;20.50;40.60;;;23.18;31.73;98266.09;5087613;28;20062;-43
2022/08/10 02:07:17;;;;;;;4.20;2.60;;;20.40;40.30;;;23.13;31.68;98264.06;5087728;28;20350;-44
2022/08/10 02:09:51;;;;;;;3.63;2.50;;;20.30;40.50;;;23.12;31.45;98262.41;5087763;28;20048;-49
2022/08/10 02:12:25;;;;;;;3.35;2.53;;;20.30;40.70;;;23.06;31.26;98267.94;5086766;28;20063;-44
2022/08/10 02:14:58;;;;;;;3.45;2.58;;;20.20;40.70;;;23.00;31.61;98273.16;5087882;28;20213;-47
2022/08/10 02:17:40;;;;;;;2.83;2.50;;;20.20;40.80;;;22.99;31.47;98265.25;5086686;28;20051;-43
2022/08/10 02:20:39;;;;;;;4.45;2.33;;;20.10;41.40;;;22.96;31.55;98265.72;5086787;28;20074;-43
2022/08/10 02:23:16;;;;;;;4.03;2.97;;;20.10;41.30;;;22.89;31.66;98270.38;5087179;28;20047;-46
2022/08/10 02:25:46;;;;;;;3.42;2.95;;;20.10;41.10;;;22.84;31.72;98271.06;5087721;28;20048;-48
2022/08/10 02:28:19;;;;;;;3.22;2.70;;;20.10;41.10;;;22.83;31.85;98269.38;5088009;28;20073;-44
2022/08/10 02:31:21;;;;;;;3.00;2.70;;;20.00;41.30;;;22.86;31.64;98268.94;5088411;28;20058;-46
2022/08/10 02:33:53;;;;;;;3.85;2.97;;;20.00;43.00;;;22.79;32.18;98274.44;5086154;28;20278;-43
2022/08/10 02:36:33;;;;;;;3.47;2.58;;;20.00;41.50;;;22.78;32.08;98269.25;5086196;28;20058;-45
2022/08/10 02:39:04;;;;;;;3.95;2.80;;;20.00;42.10;;;22.74;32.10;98271.56;5086076;28;20059;-45
2022/08/10 02:42:15;;;;;;;5.97;2.83;;;20.00;41.60;;;22.74;31.92;98274.28;5087605;28;20052;-45
2022/08/10 02:45:18;;;;;;;3.13;2.72;;;20.00;42.50;;;22.72;32.29;98273.69;5088153;28;20048;-43
2022/08/10 02:48:08;;;;;;;4.05;2.70;;;20.00;41.90;;;22.67;32.35;98286.25;5086033;28;20341;-44
2022/08/10 02:50:40;;;;;;;3.00;2.40;;;19.90;42.50;;;22.61;32.88;98279.84;5086140;28;20067;-43
2022/08/10 02:53:31;;;;;;;2.83;2.50;;;19.90;42.30;;;22.62;32.49;98278.78;5086180;28;20238;-45
2022/08/10 02:56:45;;;;;;;3.20;2.90;;;19.90;42.60;;;22.60;32.55;98280.88;5086896;28;20048;-46
2022/08/10 02:59:22;;;;;;;;;;;19.80;43.20;;;22.79;31.77;98284.47;5086618;28;20056;-44
2022/08/10 03:01:54;;;;;;;3.88;2.40;;;19.80;43.70;;;22.60;32.76;98287.16;5085330;28;19924;-44
2022/08/10 03:04:36;;;;;;;3.22;2.45;;;19.70;42.70;;;22.56;32.72;98280.50;5087753;28;20054;-45
2022/08/10 03:07:31;;;;;;;3.67;3.15;;;19.80;42.70;;;22.55;32.98;98291.59;5086081;28;20056;-44
2022/08/10 03:10:40;;;;;;;3.75;2.95;;;19.80;42.80;;;22.56;32.66;98288.63;5087607;28;20365;-45
2022/08/10 03:13:12;;;;;;;5.38;2.83;;;19.80;43.70;;;22.49;32.87;98279.75;5085047;28;20058;-43
2022/08/10 03:15:41;;;;;;;8.85;3.10;;;19.70;42.90;;;22.44;33.46;98285.00;5085592;28;20079;-43
2022/08/10 03:18:10;;;;;;;2.55;2.35;;;19.70;43.10;;;22.38;33.51;98285.88;5085432;28;20055;-46
2022/08/10 03:20:41;;;;;;;3.30;2.88;;;19.70;43.20;;;22.35;33.61;98279.03;5085939;28;20052;-44
2022/08/10 03:23:20;;;;;;;4.93;2.85;;;19.70;43.50;;;22.38;33.38;98281.28;5086030;28;20048;-43
2022/08/10 03:25:52;;;;;;;3.80;3.35;;;19.70;43.90;;;22.36;33.48;98283.41;5086305;28;20066;-47
2022/08/10 03:28:29;;;;;;;3.00;2.70;;;19.70;43.60;;;22.40;33.66;98286.50;5087188;28;20074;-45
2022/08/10 03:30:59;;;;;;;5.15;3.03;;;19.60;43.80;;;22.36;33.73;98290.72;5082309;28;20444;-46
2022/08/10 03:33:32;;;;;;;6.32;2.88;;;19.60;43.50;;;22.31;33.70;98288.63;5085785;28;20074;-44
2022/08/10 03:36:00;;;;;;;4.25;3.10;;;19.50;43.70;;;22.31;33.49;98282.41;5085670;28;20052;-46
2022/08/10 03:38:50;;;;;;;3.10;2.80;;;19.50;43.70;;;22.25;33.52;98288.72;5086536;28;20079;-46
2022/08/10 03:41:35;;;;;;;3.30;2.95;;;19.40;43.90;;;22.19;33.68;98282.25;5085567;28;20066;-43
2022/08/10 03:44:05;;;;;;;6.25;3.20;;;19.40;44.30;;;22.17;34.18;98282.47;5085227;28;20044;-45
2022/08/10 03:46:37;;;;;;;4.18;3.40;;;19.40;44.30;;;22.13;34.08;98278.53;5085471;28;20052;-46
2022/08/10 03:49:06;;;;;;;4.43;2.80;;;19.30;44.30;;;22.08;33.86;98283.81;5085244;28;20385;-46
2022/08/10 03:51:35;;;;;;;3.10;2.72;;;19.30;44.30;;;22.01;34.20;98283.84;5084928;28;20056;-45
2022/08/10 03:54:04;;;;;;;3.50;3.20;;;19.30;44.50;;;22.02;34.04;98284.66;5085033;28;20060;-43
2022/08/10 03:56:37;;;;;;;5.82;3.22;;;19.30;44.70;;;22.00;34.37;98293.03;5085542;28;20059;-45
2022/08/10 03:59:11;;;;;;;5.07;3.15;;;19.30;44.90;;;21.99;34.02;98294.06;5084262;28;20056;-44
2022/08/10 04:01:44;;;;;;;3.40;3.10;;;19.30;44.80;;;22.01;34.55;98293.88;5084725;28;20044;-44
2022/08/10 04:04:33;;;;;;;3.40;3.03;;;19.30;45.10;;;22.03;34.45;98298.00;5086274;28;20052;-44
2022/08/10 04:07:02;;;;;;;4.68;2.95;;;19.20;44.70;;;21.97;34.23;98292.63;5086565;28;20040;-45
2022/08/10 04:09:34;;;;;;;7.85;3.10;;;19.10;45.10;;;21.92;34.65;98301.41;5089737;28;20056;-43
2022/08/10 04:12:23;;;;;;;5.15;3.25;;;19.10;45.20;;;21.92;34.38;98300.59;5090179;28;20054;-44
2022/08/10 04:14:51;;;;;;;3.95;3.25;;;19.10;45.40;;;21.88;34.32;98300.19;5091032;28;20048;-44
2022/08/10 04:17:22;;;;;;;4.72;3.20;;;19.00;45.40;;;21.86;34.61;98298.75;5089383;28;20349;-45
2022/08/10 04:20:24;;;;;;;4.68;3.20;;;19.10;45.60;;;21.87;34.73;98303.13;5091298;28;20047;-46
2022/08/10 04:22:57;;;;;;;3.85;3.10;;;19.10;46.50;;;21.83;34.61;98308.16;5090599;28;20048;-44
2022/08/10 04:25:27;;;;;;;3.20;2.88;;;19.00;45.80;;;21.82;34.76;98309.19;5091685;28;20074;-44
2022/08/10 04:27:55;;;;;;;7.63;3.60;;;19.10;45.70;;;21.80;35.18;98309.41;5090654;28;20050;-43
2022/08/10 04:30:24;;;;;;;3.35;3.03;;;19.10;45.80;;;21.77;35.33;98312.56;5091479;28;20059;-44
2022/08/10 04:32:58;;;;;;;4.38;3.88;;;19.10;45.90;;;21.76;35.46;98316.31;5089526;28;20052;-43
2022/08/10 04:35:28;;;;;;;3.80;3.50;;;19.10;46.00;;;21.78;35.30;98319.63;5089607;28;20253;-45
2022/08/10 04:37:57;;;;;;;3.55;3.25;;;19.10;45.90;;;21.76;35.33;98319.03;5088293;28;20059;-47
2022/08/10 04:40:25;;;;;;;3.95;2.95;;;19.00;45.90;;;21.75;35.52;98316.53;5090633;28;20050;-47
2022/08/10 04:43:02;;;;;;;3.78;3.03;;;19.00;46.00;;;21.73;35.50;98318.63;5089871;28;20711;-46
2022/08/10 04:45:43;;;;;;;4.47;3.50;;;19.00;46.20;;;21.76;35.26;98318.19;5090857;28;20325;-44
2022/08/10 04:48:23;;;;;;;2.90;2.58;;;19.00;46.30;;;21.76;35.77;98318.19;5089537;28;20052;-43
2022/08/10 04:51:15;;;;;;;3.40;3.10;;;19.00;46.30;;;21.78;35.64;98314.22;5089690;28;20056;-45
2022/08/10 04:53:46;;;;;;;;;;;19.10;46.60;;;21.98;35.01;98310.56;5089373;28;20368;-46
2022/08/10 04:56:38;;;;;;;3.83;3.05;;;19.10;48.10;;;21.83;35.28;98305.44;5089758;28;20126;-43
2022/08/10 04:59:08;;;;;;;4.88;2.90;;;19.00;46.90;;;21.78;35.53;98305.25;5090588;28;20056;-44
2022/08/10 05:01:40;;;;;;;9.57;3.45;;;19.00;46.60;;;21.76;35.45;98305.47;5090686;28;20052;-45
2022/08/10 05:04:28;;;;;;;3.58;2.97;;;19.00;46.70;;;21.79;35.97;98305.06;5089990;28;20056;-42
2022/08/10 05:07:12;;;;;;;3.97;2.95;;;19.10;46.70;;;21.78;35.50;98303.38;5089111;28;20063;-43
2022/08/10 05:09:47;;;;;;;6.53;3.38;;;19.10;46.40;;;21.79;35.64;98315.88;5089944;28;20050;-44
2022/08/10 05:12:35;;;;;;;6.93;3.40;;;19.10;46.40;;;21.81;35.31;98312.97;5090047;28;20066;-42
2022/08/10 05:15:11;;;;;;;4.43;2.67;;;19.10;46.20;;;21.82;35.42;98309.19;5089739;28;20052;-42
2022/08/10 05:17:41;;;;;;;3.85;3.47;;;19.20;46.40;;;21.82;35.31;98318.16;5089971;28;20050;-45
2022/08/10 05:20:29;;;;;;;5.28;3.22;;;19.20;46.00;;;21.87;35.25;98320.22;5090280;28;20380;-43
2022/08/10 05:22:57;;;;;;;3.75;3.15;;;19.20;45.90;;;21.89;35.27;98314.56;5086444;28;20342;-49
2022/08/10 05:25:25;;;;;;;4.80;3.00;;;19.20;45.80;;;21.88;35.66;98313.75;5090211;28;20052;-42
2022/08/10 05:27:53;;;;;;;3.53;3.20;;;19.30;45.90;;;21.90;35.38;98319.78;5088378;28;20048;-47
2022/08/10 05:30:24;;;;;;;3.72;3.30;;;19.30;46.10;;;21.94;35.23;98325.59;5089550;28;20051;-48
2022/08/10 05:32:52;;;;;;;5.40;3.00;;;19.40;45.90;;;21.95;35.80;98324.56;5089183;28;20056;-48
2022/08/10 05:35:26;;;;;;;6.72;3.92;;;19.40;46.00;;;21.97;35.30;98317.03;5089499;28;20055;-48
2022/08/10 05:37:57;;;;;;;3.83;3.20;;;19.40;46.50;;;21.97;35.65;98328.69;5088107;28;20070;-46
2022/08/10 05:40:43;;;;;;;5.20;3.55;;;19.40;46.00;;;22.00;35.26;98319.28;5089529;28;20044;-48
2022/08/10 05:43:19;;;;;;;3.30;2.70;;;19.40;46.00;;;22.02;35.49;98323.47;5088246;28;20062;-43
2022/08/10 05:45:49;;;;;;;4.30;3.40;;;19.40;46.40;;;22.01;35.47;98323.69;5089226;28;20054;-45
2022/08/10 05:48:40;;;;;;;4.38;3.53;;;19.40;46.10;;;22.06;35.83;98326.53;5088364;28;20461;-49
2022/08/10 05:51:28;;;;;;;3.42;3.08;;;19.50;46.20;;;22.12;35.64;98322.13;5087416;28;20056;-47
2022/08/10 05:53:58;;;;;;;6.22;2.63;;;19.50;46.10;;;22.12;35.43;98324.84;5087005;28;20262;-48
2022/08/10 05:56:36;;;;;;;5.68;3.03;;;19.60;45.90;;;22.17;35.88;98325.84;5088210;28;20062;-45
2022/08/10 05:59:30;;;;;;;3.20;2.88;;;19.60;46.20;;;22.23;35.71;98332.28;5087050;28;20250;-48
2022/08/10 06:02:31;;;;;;;3.10;2.78;;;19.60;45.80;;;22.32;35.38;98331.00;5088319;28;20058;-45
2022/08/10 06:05:20;;;;;;;4.72;3.03;;;19.70;46.30;;;22.33;35.35;98332.69;5088975;28;20050;-47
2022/08/10 06:07:55;;;;;;;6.00;3.10;;;19.80;45.90;;;22.32;35.33;98333.72;5087724;28;20056;-47
2022/08/10 06:10:23;;;;;;;2.90;2.60;;;19.80;45.70;;;22.35;35.52;98340.56;5088491;28;20052;-49
2022/08/10 06:16:02;;;;;;;4.30;2.90;;;19.90;45.70;;;22.48;35.49;98343.19;5087872;28;20066;-46
2022/08/10 06:18:31;;;;;;;2.95;2.40;;;20.00;45.40;;;22.56;35.26;98342.06;5087803;28;20052;-49
2022/08/10 06:20:59;;;;;;;5.28;3.33;;;20.00;45.40;;;22.58;35.44;98348.13;5087461;28;20048;-47
2022/08/10 06:23:32;;;;;;;5.00;2.70;;;20.10;45.20;;;22.63;35.16;98347.47;5087693;28;20231;-46
2022/08/10 06:26:00;;;;;;;6.88;3.63;;;20.10;45.20;;;22.66;34.84;98345.13;5088767;28;20346;-46
2022/08/10 06:29:01;;;;;;;7.75;3.15;;;20.20;45.00;;;22.76;35.15;98342.75;5087025;28;20058;-47
2022/08/10 06:31:35;;;;;;;6.38;3.05;;;20.30;45.10;;;22.75;34.76;98342.97;5084665;28;20054;-49
2022/08/10 06:34:37;;;;;;;9.00;3.42;;;20.30;44.70;;;22.80;34.88;98341.25;5088233;28;20338;-47
2022/08/10 06:37:06;;;;;;;6.45;3.28;;;20.40;45.10;;;22.84;34.95;98343.50;5086382;28;20058;-45
2022/08/10 06:39:36;;;;;;;5.43;3.40;;;20.40;44.70;;;22.87;34.89;98335.75;5086120;28;20056;-45
2022/08/10 06:42:47;;;;;;;8.13;3.65;;;20.50;44.70;;;23.04;34.90;98337.91;5085920;28;20056;-47
2022/08/10 06:45:26;;;;;;;3.40;3.10;;;20.50;44.80;;;23.06;34.66;98333.09;5085949;28;20533;-46
2022/08/10 06:48:01;;;;;;;5.35;3.40;;;20.60;44.60;;;23.10;34.59;98340.56;5086363;28;20052;-45
2022/08/10 06:50:39;;;;;;;11.02;3.45;;;20.70;44.80;;;23.15;35.06;98338.00;5087129;28;20048;-46
2022/08/10 06:53:32;;;;;;;5.18;3.03;;;20.70;44.80;;;23.21;34.93;98336.28;5085906;28;20859;-46
2022/08/10 06:56:28;;;;;;;4.50;3.10;;;20.80;44.40;;;23.22;34.73;98340.63;5086982;28;20071;-48
2022/08/10 06:59:39;;;;;;;8.23;4.57;;;20.80;44.10;;;23.27;34.43;98340.78;5086364;28;20082;-47
2022/08/10 07:02:19;;;;;;;6.25;2.92;;;20.90;44.20;;;23.33;34.61;98342.59;5087497;28;20377;-45
2022/08/10 07:04:53;;;;;;;8.23;3.60;;;20.90;44.40;;;23.39;34.55;98343.59;5087517;28;20435;-48
2022/08/10 07:07:27;;;;;;;6.97;3.30;;;20.90;44.20;;;23.42;34.40;98337.72;5086537;28;20052;-46
2022/08/10 07:09:56;;;;;;;8.40;3.17;;;21.00;44.00;;;23.48;34.55;98338.69;5086473;28;20040;-45
2022/08/10 07:12:26;;;;;;;8.10;4.13;;;21.10;43.80;;;23.51;34.76;98341.75;5086506;28;20044;-46
2022/08/10 07:14:56;;;;;;;10.15;3.17;;;21.20;43.80;;;23.57;34.61;98340.00;5086328;28;20051;-46
2022/08/10 07:17:27;;;;;;;6.72;3.28;;;21.20;43.60;;;23.63;34.37;98344.53;5085098;28;20060;-45
2022/08/10 07:19:58;;;;;;;3.85;3.08;;;21.30;43.70;;;23.70;34.62;98334.41;5086237;28;20048;-51
2022/08/10 07:22:29;;;;;;;5.18;3.00;;;21.40;43.60;;;23.76;34.20;98344.38;5084710;28;20056;-49
2022/08/10 07:25:24;;;;;;;4.38;2.90;;;21.40;43.40;;;23.86;33.95;98332.97;5098399;28;20070;-46
2022/08/10 07:27:55;;;;;;;4.78;2.97;;;21.50;43.20;;;23.89;34.40;98337.97;5085815;28;20101;-50
2022/08/10 07:30:37;;;;;;;2.85;2.53;;;21.60;43.30;;;23.98;34.05;98342.03;5085275;28;20048;-45
2022/08/10 07:33:07;;;;;;;4.07;2.95;;;21.60;43.20;;;24.01;34.12;98338.00;5084874;28;20066;-45
2022/08/10 07:35:37;;;;;;;3.65;2.78;;;21.70;43.10;;;24.07;33.88;98330.81;5085707;28;20048;-44
2022/08/10 07:38:21;;;;;;;5.78;3.40;;;21.80;42.80;;;24.16;33.75;98334.88;5084658;28;20062;-45
2022/08/10 07:40:51;;;;;;;4.97;2.60;;;21.80;42.60;;;24.20;33.73;98343.41;5086886;28;20086;-43
2022/08/10 07:43:25;;;;;;;5.22;3.58;;;21.90;42.70;;;24.25;33.68;98332.63;5085615;28;20231;-43
2022/08/10 07:45:55;;;;;;;4.90;2.65;;;21.90;42.50;;;24.28;33.69;98329.44;5084891;28;20076;-45
2022/08/10 07:48:31;;;;;;;3.00;2.50;;;22.00;42.30;;;24.33;33.51;98329.56;5085789;28;20093;-43
2022/08/10 07:51:01;;;;;;;7.22;3.00;;;22.10;42.10;;;24.38;33.32;98332.41;5086714;28;20074;-45
2022/08/10 07:53:38;;;;;;;4.72;3.17;;;22.10;42.20;;;24.46;33.70;98325.81;5084740;28;20043;-46
2022/08/10 07:56:07;;;;;;;4.68;2.40;;;22.20;42.10;;;24.51;33.56;98325.97;5085324;28;20058;-48
2022/08/10 07:59:08;;;;;;;5.68;2.72;;;22.20;42.20;;;24.62;33.24;98327.88;5086764;28;20702;-47
2022/08/10 08:01:45;;;;;;;6.18;2.40;;;22.30;41.40;;;24.67;33.09;98325.28;5092938;28;20048;-46
2022/08/10 08:04:15;;;;;;;8.90;2.85;;;22.40;41.30;;;24.73;32.82;98328.94;5094911;28;20051;-44
2022/08/10 08:06:46;;;;;;;5.20;2.35;;;22.50;41.00;;;24.79;32.58;98329.91;5094912;28;20043;-44
2022/08/10 08:09:14;;;;;;;3.33;2.33;;;22.60;40.50;;;24.86;32.22;98338.78;5093901;28;20376;-47
2022/08/10 08:11:43;;;;;;;5.43;2.40;;;22.60;40.20;;;24.90;32.16;98334.53;5095676;28;20059;-45
2022/08/10 08:14:13;;;;;;;2.50;2.30;;;22.70;40.10;;;24.95;32.04;98331.91;5094215;28;20051;-46
2022/08/10 08:16:45;;;;;;;3.28;2.58;;;22.70;40.10;;;25.03;32.05;98330.69;5095169;28;20524;-44
2022/08/10 08:19:16;;;;;;;2.60;2.38;;;22.80;39.80;;;25.09;31.92;98332.50;5094274;28;20055;-46
2022/08/10 08:22:06;;;;;;;7.22;2.63;;;22.80;39.70;;;25.18;31.65;98316.59;5065066;28;20253;-43
2022/08/10 08:24:56;;;;;;;2.35;2.10;;;22.90;39.90;;;25.25;31.75;98328.25;5066040;28;20052;-47
2022/08/10 08:27:27;;;;;;;4.30;2.13;;;22.90;39.60;;;25.32;31.51;98326.22;5065505;28;20049;-44
2022/08/10 08:29:55;;;;;;;3.85;2.42;;;23.10;39.10;;;25.39;31.38;98336.97;5065741;28;20048;-44
2022/08/10 08:32:26;;;;;;;4.22;2.13;;;23.20;38.90;;;25.44;31.21;98334.38;5064484;28;20055;-44
2022/08/10 08:35:08;;;;;;;6.07;2.42;;;23.20;38.30;;;25.54;30.97;98331.84;5064975;28;20044;-47
2022/08/10 08:37:39;;;;;;;2.97;2.33;;;23.30;37.80;;;25.60;30.32;98328.16;5063463;28;20279;-47
2022/08/10 08:40:35;;;;;;;2.78;2.40;;;23.40;37.90;;;25.69;30.28;98326.69;5065343;28;20056;-45
2022/08/10 08:43:30;;;;;;;4.38;3.05;;;23.40;37.10;;;25.80;30.09;98333.16;5065141;28;20111;-48
2022/08/10 08:46:27;;;;;;;5.10;2.28;;;23.50;37.30;;;25.89;30.14;98322.72;5066691;28;20052;-47
2022/08/10 08:49:44;;;;;;;2.70;2.10;;;23.60;36.40;;;25.96;30.31;98328.03;5065681;28;20074;-44
2022/08/10 08:52:53;;;;;;;7.25;2.58;;;23.70;37.10;;;26.01;30.16;98317.22;5048522;28;20064;-47
2022/08/10 08:56:00;;;;;;;2.30;2.10;;;23.70;37.10;;;26.11;29.48;98314.69;5070366;28;20052;-45
2022/08/10 08:58:48;;;;;;;2.63;2.10;;;23.90;35.50;;;26.17;29.20;98329.25;5069909;28;20196;-45
2022/08/10 09:01:37;;;;;;;3.25;1.80;;;23.90;34.80;;;26.24;29.09;98321.72;5069861;28;20063;-45
2022/08/10 09:04:26;;;;;;;4.00;2.00;;;24.00;34.80;;;26.27;28.70;98313.06;5070097;28;20053;-45
2022/08/10 09:07:13;;;;;;;4.68;2.22;;;24.00;34.40;;;26.32;28.40;98311.22;5070064;28;20056;-46
2022/08/10 09:10:59;;;;;;;2.10;1.90;;;24.10;33.90;;;26.44;28.49;98315.78;5069386;28;20059;-44
2022/08/10 09:13:53;;;;;;;4.30;2.25;;;24.10;33.80;;;26.47;27.93;98313.38;5068804;28;20058;-46
2022/08/10 09:17:15;;;;;;;8.02;3.67;;;24.20;33.30;;;26.56;28.19;98308.34;5069751;28;20437;-47
2022/08/10 09:20:37;;;;;;;3.28;2.42;;;24.30;33.00;;;26.64;28.06;98301.69;5068357;28;20256;-46
2022/08/10 09:23:23;;;;;;;2.97;2.33;;;24.40;33.70;;;26.70;28.02;98300.69;4987225;28;20268;-45
2022/08/10 09:26:24;;;;;;;3.25;2.30;;;24.40;34.20;;;26.74;27.54;98298.28;5068170;28;20074;-48
2022/08/10 09:28:59;;;;;;;3.90;2.50;;;24.50;33.30;;;26.78;27.45;98293.97;5068719;28;20380;-45
2022/08/10 09:32:12;;;;;;;3.67;2.25;;;24.50;33.00;;;26.89;27.48;98293.03;5066222;28;20251;-47
2022/08/10 09:35:28;;;;;;;3.28;2.10;;;24.60;32.40;;;26.99;26.26;98295.09;5069852;28;20064;-48
2022/08/10 09:38:35;;;;;;;5.07;2.40;;;24.70;30.00;;;27.01;25.77;98296.47;5068275;28;20056;-43
2022/08/10 09:41:39;;;;;;;4.82;2.53;;;24.70;31.30;;;27.06;25.48;98287.50;5068444;28;20056;-43
2022/08/10 09:44:45;;;;;;;5.75;2.42;;;24.80;29.60;;;27.08;25.80;98291.66;5066778;28;20060;-45
2022/08/10 09:47:57;;;;;;;3.97;2.35;;;24.80;29.30;;;27.14;25.52;98295.28;5066564;28;20053;-45
2022/08/10 09:50:47;;;;;;;7.40;2.38;;;24.90;29.90;;;27.17;24.96;98291.22;5067822;28;20048;-47
2022/08/10 09:53:51;;;;;;;2.45;2.25;;;24.90;29.60;;;27.23;25.17;98282.81;5066519;28;20060;-44
2022/08/10 09:56:42;;;;;;;3.72;2.10;;;25.00;29.50;;;27.22;25.12;98288.53;5067222;28;20598;-45
2022/08/10 09:59:11;;;;;;;4.90;2.53;;;24.90;30.00;;;27.27;24.63;98280.44;5057981;28;20072;-46
2022/08/10 10:02:26;;;;;;;2.95;2.30;;;25.10;29.90;;;27.40;24.51;98290.19;5067396;28;20438;-44
2022/08/10 10:04:59;;;;;;;2.72;2.10;;;25.20;28.80;;;27.43;24.55;98282.31;5065444;28;20048;-49
2022/08/10 10:07:29;;;;;;;4.60;2.25;;;25.20;29.60;;;27.46;23.84;98270.03;5066786;28;20250;-44
2022/08/10 10:10:44;;;;;;;2.45;2.03;;;25.20;29.00;;;27.52;23.54;98279.13;5067816;28;20358;-44
2022/08/10 10:13:43;;;;;;;5.38;2.03;;;25.30;28.10;;;27.62;24.11;98282.78;5024999;28;20064;-45
2022/08/10 10:16:56;;;;;;;2.80;1.73;;;25.40;28.30;;;27.69;23.65;98271.66;5024297;28;20056;-43
2022/08/10 10:19:42;;;;;;;3.47;2.00;;;25.40;27.80;;;27.73;23.68;98280.97;5066777;28;20346;-43
2022/08/10 10:23:00;;;;;;;4.32;1.92;;;25.50;27.80;;;27.78;23.40;98264.63;5067808;28;20301;-45
2022/08/10 10:25:40;;;;;;;3.83;1.90;;;25.50;27.00;;;27.82;23.11;98275.88;5067486;28;20044;-45
2022/08/10 10:28:24;;;;;;;2.70;1.90;;;25.50;27.40;;;27.86;23.18;98277.84;5067915;28;20040;-44
2022/08/10 10:31:25;;;;;;;2.20;2.00;;;25.60;27.60;;;27.92;23.10;98265.06;5067966;28;20389;-46
2022/08/10 10:34:05;;;;;;;2.95;1.70;;;25.70;27.70;;;27.96;22.56;98259.91;5066974;28;20052;-44
2022/08/10 10:36:34;;;;;;;2.65;1.92;;;25.70;27.30;;;28.01;22.33;98273.63;5068317;28;20454;-44
2022/08/10 10:39:03;;;;;;;2.97;2.33;;;25.80;27.40;;;28.03;22.15;98263.25;5066828;28;20060;-45
2022/08/10 10:42:08;;;;;;;3.97;2.10;;;25.80;27.50;;;28.09;23.07;98273.16;5065446;28;20044;-47
2022/08/10 10:45:13;;;;;;;2.28;2.08;;;25.80;27.80;;;28.18;22.73;98263.38;5068118;28;20064;-45
2022/08/10 10:48:23;;;;;;;2.47;1.70;;;25.90;27.10;;;28.23;22.75;98265.34;5067321;28;20448;-44
2022/08/10 10:51:15;;;;;;;3.05;2.13;;;26.00;27.70;;;28.24;22.78;98253.31;5067451;28;20056;-46
2022/08/10 10:54:31;;;;;;;3.80;2.30;;;26.00;28.30;;;28.34;23.24;98260.78;5065874;28;20330;-43
2022/08/10 10:57:29;;;;;;;4.15;2.33;;;26.00;28.10;;;28.41;23.11;98256.72;5065865;28;20070;-45
2022/08/10 11:00:20;;;;;;;3.10;2.58;;;26.10;28.30;;;28.46;22.83;98254.03;5066647;28;20199;-45
2022/08/10 11:03:24;;;;;;;23.35;15.40;;;26.20;28.50;;;28.51;23.07;98250.53;5067501;28;20052;-43
2022/08/10 11:06:32;;;;;;;6.05;3.53;;;26.20;28.60;;;28.58;23.50;98242.91;5065173;28;20052;-45
2022/08/10 11:09:36;;;;;;;11.77;8.10;;;26.30;28.30;;;28.63;22.81;98248.44;5066109;28;20488;-47
2022/08/10 11:12:43;;;;;;;3.45;2.58;;;26.40;28.10;;;28.71;22.98;98246.28;5065925;28;20067;-48
2022/08/10 11:15:55;;;;;;;22.10;16.90;;;26.40;27.90;;;28.73;23.21;98239.47;5066409;28;20058;-46
2022/08/10 11:18:34;;;;;;;3.03;2.60;;;26.50;28.10;;;28.75;22.78;98240.03;5073561;28;20062;-44
2022/08/10 11:21:54;;;;;;;3.72;2.20;;;26.50;28.10;;;28.81;22.82;98233.47;5109151;28;20054;-48
2022/08/10 11:24:53;;;;;;;3.22;2.47;;;26.60;27.40;;;28.85;22.85;98244.72;5092264;28;20122;-45
2022/08/10 11:27:49;;;;;;;3.10;2.80;;;26.60;27.70;;;28.89;22.84;98239.50;5097111;28;20052;-45